Time,TemperatureF,DewpointF,PressureIn,WindDirection,WindDirectionDegrees,WindSpeedMPH,WindSpeedGustMPH,Humidity,HourlyPrecipIn,Conditions,Clouds,dailyrainin,SoftwareType,DateUTC
2013-02-21 00:01:00,40.0,34.0,30.00,ENE,74,0.0,0.0,79,0.00,,,0.03,,2013-02-21 08:01:00,
2013-02-21 00:11:00,40.0,34.0,30.00,ENE,74,0.0,0.0,79,0.00,,,0.03,,2013-02-21 08:11:00,
2013-02-21 00:21:00,40.0,34.0,30.00,ENE,74,0.0,0.0,79,0.00,,,0.03,,2013-02-21 08:21:00,
2013-02-21 00:31:00,39.0,34.0,29.99,ENE,74,0.0,0.0,81,0.00,,,0.03,,2013-02-21 08:31:00,
2013-02-21 00:42:00,39.0,34.0,29.99,ENE,74,0.0,0.0,81,0.00,,,0.03,,2013-02-21 08:42:00,
2013-02-21 00:52:00,38.0,33.0,29.99,ENE,74,0.0,0.0,81,0.00,,,0.03,,2013-02-21 08:52:00,
2013-02-21 01:01:00,38.0,33.0,30.00,ENE,74,0.0,0.0,81,0.00,,,0.03,,2013-02-21 09:01:00,
2013-02-21 01:11:00,38.0,33.0,30.00,ENE,74,0.0,0.0,81,0.00,,,0.03,,2013-02-21 09:11:00,
2013-02-21 01:22:00,38.0,33.0,30.00,ENE,74,0.0,0.0,81,0.00,,,0.03,,2013-02-21 09:22:00,
2013-02-21 01:31:00,37.0,31.0,30.01,ENE,74,0.0,0.0,80,0.00,,,0.03,,2013-02-21 09:31:00,
2013-02-21 01:41:00,37.0,31.0,30.01,ENE,74,0.0,0.0,80,0.00,,,0.03,,2013-02-21 09:41:00,
2013-02-21 01:51:00,37.0,32.0,30.01,ENE,74,0.0,0.0,81,0.00,,,0.03,,2013-02-21 09:51:00,
2013-02-21 02:01:00,37.0,32.0,30.01,ENE,74,0.0,0.0,82,0.00,,,0.03,,2013-02-21 10:01:00,
2013-02-21 02:11:00,37.0,32.0,30.01,ENE,74,0.0,0.0,82,0.00,,,0.03,,2013-02-21 10:11:00,
2013-02-21 02:21:00,37.0,32.0,30.01,ENE,74,0.0,0.0,82,0.00,,,0.03,,2013-02-21 10:21:00,
2013-02-21 02:31:00,36.0,31.0,30.02,ENE,74,0.0,0.0,81,0.00,,,0.03,,2013-02-21 10:31:00,
2013-02-21 02:41:00,36.0,31.0,30.02,ENE,74,0.0,0.0,81,0.00,,,0.03,,2013-02-21 10:41:00,
2013-02-21 02:51:00,36.0,30.0,30.02,ENE,74,0.0,0.0,79,0.00,,,0.03,,2013-02-21 10:51:00,
2013-02-21 03:00:00,36.0,30.0,30.02,ENE,74,0.0,0.0,79,0.00,,,0.03,,2013-02-21 11:00:00,
2013-02-21 03:10:00,36.0,30.0,30.02,ENE,74,0.0,0.0,79,0.00,,,0.03,,2013-02-21 11:10:00,
2013-02-21 03:21:00,35.0,29.0,30.01,ENE,74,0.0,0.0,77,0.00,,,0.03,,2013-02-21 11:21:00,
2013-02-21 03:31:00,36.0,29.0,30.01,ENE,74,0.0,0.0,75,0.00,,,0.03,,2013-02-21 11:31:00,
2013-02-21 03:41:00,36.0,29.0,30.01,ENE,74,0.0,0.0,75,0.00,,,0.03,,2013-02-21 11:41:00,
2013-02-21 03:51:00,35.0,28.0,30.01,ENE,74,0.0,0.0,75,0.00,,,0.03,,2013-02-21 11:51:00,
2013-02-21 04:01:00,35.0,28.0,30.02,ENE,74,0.0,0.0,75,0.00,,,0.03,,2013-02-21 12:01:00,
2013-02-21 04:11:00,35.0,28.0,30.02,ENE,74,0.0,0.0,75,0.00,,,0.03,,2013-02-21 12:11:00,
2013-02-21 04:21:00,34.0,27.0,30.03,ENE,74,0.0,0.0,75,0.00,,,0.03,,2013-02-21 12:21:00,
2013-02-21 04:32:00,34.0,26.0,30.04,ENE,74,0.0,0.0,73,0.00,,,0.03,,2013-02-21 12:32:00,
2013-02-21 04:42:00,34.0,26.0,30.04,ENE,74,0.0,0.0,73,0.00,,,0.03,,2013-02-21 12:42:00,
2013-02-21 04:52:00,34.0,25.0,30.04,ENE,74,0.0,0.0,70,0.00,,,0.03,,2013-02-21 12:52:00,
2013-02-21 05:01:00,34.0,25.0,30.05,ENE,74,0.0,0.0,70,0.00,,,0.03,,2013-02-21 13:01:00,
2013-02-21 05:12:00,34.0,25.0,30.05,ENE,74,0.0,0.0,70,0.00,,,0.03,,2013-02-21 13:12:00,
2013-02-21 05:22:00,33.0,25.0,30.05,ENE,74,0.0,0.0,71,0.00,,,0.03,,2013-02-21 13:22:00,
2013-02-21 05:31:00,33.0,25.0,30.05,ENE,74,0.0,0.0,72,0.00,,,0.03,,2013-02-21 13:31:00,
2013-02-21 05:41:00,33.0,25.0,30.05,ENE,74,0.0,0.0,72,0.00,,,0.03,,2013-02-21 13:41:00,
2013-02-21 05:51:00,33.0,25.0,30.06,ENE,74,0.0,0.0,72,0.00,,,0.03,,2013-02-21 13:51:00,
2013-02-21 06:02:00,33.0,25.0,30.06,ENE,74,0.0,0.0,72,0.00,,,0.03,,2013-02-21 14:02:00,
2013-02-21 06:11:00,33.0,25.0,30.06,ENE,74,0.0,0.0,72,0.00,,,0.03,,2013-02-21 14:11:00,
2013-02-21 06:21:00,32.0,25.0,30.06,ENE,74,1.0,3.0,74,0.00,,,0.03,,2013-02-21 14:21:00,
2013-02-21 06:31:00,32.0,25.0,30.06,ENE,74,1.0,3.0,74,0.00,,,0.03,,2013-02-21 14:31:00,
2013-02-21 06:41:00,32.0,25.0,30.06,ENE,74,1.0,3.0,74,0.00,,,0.03,,2013-02-21 14:41:00,
2013-02-21 06:52:00,34.0,25.0,30.08,ENE,76,0.0,0.0,70,0.00,,,0.03,,2013-02-21 14:52:00,
2013-02-21 07:01:00,34.0,24.0,30.09,ENE,76,0.0,0.0,67,0.00,,,0.03,,2013-02-21 15:01:00,
2013-02-21 07:12:00,34.0,24.0,30.09,ENE,76,0.0,0.0,67,0.00,,,0.03,,2013-02-21 15:12:00,
2013-02-21 07:21:00,34.0,25.0,30.10,ENE,76,0.0,0.0,70,0.00,,,0.03,,2013-02-21 15:21:00,
2013-02-21 07:31:00,34.0,26.0,30.10,ENE,76,0.0,0.0,72,0.00,,,0.03,,2013-02-21 15:31:00,
2013-02-21 07:41:00,34.0,26.0,30.10,ENE,76,0.0,0.0,72,0.00,,,0.03,,2013-02-21 15:41:00,
2013-02-21 07:51:00,34.0,25.0,30.11,ENE,76,0.0,0.0,70,0.00,,,0.03,,2013-02-21 15:51:00,
2013-02-21 08:01:00,34.0,25.0,30.11,ENE,76,0.0,0.0,70,0.00,,,0.03,,2013-02-21 16:01:00,
2013-02-21 08:12:00,37.0,24.0,30.12,ENE,74,0.0,3.0,58,0.00,,,0.03,,2013-02-21 16:12:00,
2013-02-21 08:21:00,37.0,24.0,30.12,ENE,74,0.0,3.0,58,0.00,,,0.03,,2013-02-21 16:21:00,
2013-02-21 08:31:00,38.0,25.0,30.13,ENE,74,0.0,0.0,60,0.00,,,0.03,,2013-02-21 16:31:00,
2013-02-21 08:42:00,40.0,27.0,30.14,ENE,74,0.0,1.0,59,0.00,,,0.03,,2013-02-21 16:42:00,
2013-02-21 08:51:00,40.0,27.0,30.14,ENE,74,0.0,1.0,59,0.00,,,0.03,,2013-02-21 16:51:00,
2013-02-21 09:01:00,42.0,27.0,30.14,ENE,74,0.0,0.0,54,0.00,,,0.03,,2013-02-21 17:01:00,
2013-02-21 09:11:00,42.0,27.0,30.14,ENE,74,0.0,0.0,54,0.00,,,0.03,,2013-02-21 17:11:00,
2013-02-21 09:21:00,42.0,26.0,30.14,ENE,74,0.0,0.0,53,0.00,,,0.03,,2013-02-21 17:21:00,
2013-02-21 09:32:00,43.0,26.0,30.15,ENE,74,0.0,3.0,50,0.00,,,0.03,,2013-02-21 17:32:00,
2013-02-21 09:41:00,43.0,26.0,30.15,ENE,74,0.0,3.0,50,0.00,,,0.03,,2013-02-21 17:41:00,
2013-02-21 09:52:00,44.0,26.0,30.15,ENE,74,0.0,0.0,48,0.00,,,0.03,,2013-02-21 17:52:00,
2013-02-21 10:01:00,44.0,23.0,30.14,ENE,74,0.0,2.0,43,0.00,,,0.03,,2013-02-21 18:01:00,
2013-02-21 10:11:00,44.0,23.0,30.14,ENE,74,0.0,2.0,43,0.00,,,0.03,,2013-02-21 18:11:00,
2013-02-21 10:21:00,44.0,23.0,30.14,ENE,74,0.0,2.0,43,0.00,,,0.03,,2013-02-21 18:21:00,
2013-02-21 10:31:00,46.0,24.0,30.15,East,101,0.0,5.0,42,0.00,,,0.01,,2013-02-21 18:31:00,
2013-02-21 10:42:00,46.0,24.0,30.15,East,101,0.0,5.0,42,0.00,,,0.01,,2013-02-21 18:42:00,
2013-02-21 10:52:00,46.0,24.0,30.15,East,101,0.0,5.0,42,0.00,,,0.01,,2013-02-21 18:52:00,
2013-02-21 11:01:00,46.0,22.0,30.15,SE,126,0.0,4.0,39,0.00,,,0.01,,2013-02-21 19:01:00,
2013-02-21 11:11:00,46.0,22.0,30.15,SE,126,0.0,4.0,39,0.00,,,0.01,,2013-02-21 19:11:00,
2013-02-21 11:21:00,46.0,22.0,30.15,SE,126,0.0,4.0,39,0.00,,,0.01,,2013-02-21 19:21:00,
2013-02-21 11:31:00,47.0,21.0,30.14,SE,126,0.0,3.0,36,0.00,,,0.00,,2013-02-21 19:31:00,
2013-02-21 11:41:00,47.0,21.0,30.14,SE,126,0.0,3.0,36,0.00,,,0.00,,2013-02-21 19:41:00,
2013-02-21 11:51:00,48.0,22.0,30.14,SE,126,0.0,0.0,36,0.00,,,0.00,,2013-02-21 19:51:00,
2013-02-21 12:01:00,48.0,22.0,30.14,SE,126,0.0,3.0,36,0.00,,,0.00,,2013-02-21 20:01:00,
2013-02-21 12:11:00,48.0,20.0,30.14,ESE,123,0.0,5.0,32,0.00,,,0.00,,2013-02-21 20:11:00,
2013-02-21 12:21:00,48.0,20.0,30.14,ESE,123,0.0,5.0,32,0.00,,,0.00,,2013-02-21 20:21:00,
2013-02-21 12:31:00,50.0,21.0,30.13,SW,217,2.0,8.0,32,0.00,,,0.00,,2013-02-21 20:31:00,
2013-02-21 12:41:00,50.0,21.0,30.13,SW,217,2.0,8.0,32,0.00,,,0.00,,2013-02-21 20:41:00,
2013-02-21 12:52:00,50.0,20.0,30.12,NNE,21,1.0,9.0,30,0.00,,,0.00,,2013-02-21 20:52:00,
2013-02-21 13:02:00,49.0,20.0,30.11,ENE,70,0.0,5.0,31,0.00,,,0.00,,2013-02-21 21:02:00,
2013-02-21 13:11:00,49.0,18.0,30.11,ENE,70,0.0,3.0,29,0.00,,,0.00,,2013-02-21 21:11:00,
2013-02-21 13:21:00,49.0,18.0,30.11,ENE,70,0.0,3.0,29,0.00,,,0.00,,2013-02-21 21:21:00,
2013-02-21 13:31:00,51.0,20.0,30.11,ENE,67,0.0,5.0,29,0.00,,,0.00,,2013-02-21 21:31:00,
2013-02-21 13:41:00,51.0,16.0,30.11,ENE,74,0.0,4.0,25,0.00,,,0.00,,2013-02-21 21:41:00,
2013-02-21 13:51:00,51.0,16.0,30.11,ENE,74,0.0,4.0,25,0.00,,,0.00,,2013-02-21 21:51:00,
2013-02-21 14:01:00,51.0,17.0,30.11,ESE,123,2.0,5.0,26,0.00,,,0.00,,2013-02-21 22:01:00,
2013-02-21 14:11:00,51.0,17.0,30.11,ESE,123,2.0,5.0,26,0.00,,,0.00,,2013-02-21 22:11:00,
2013-02-21 14:21:00,51.0,16.0,30.11,SSE,167,0.0,5.0,25,0.00,,,0.00,,2013-02-21 22:21:00,
2013-02-21 14:31:00,52.0,16.0,30.11,SW,214,5.0,10.0,24,0.00,,,0.00,,2013-02-21 22:31:00,
2013-02-21 14:41:00,52.0,16.0,30.11,SW,214,5.0,10.0,24,0.00,,,0.00,,2013-02-21 22:41:00,
2013-02-21 14:52:00,54.0,17.0,30.11,SW,219,3.0,7.0,23,0.00,,,0.00,,2013-02-21 22:52:00,
2013-02-21 15:01:00,52.0,16.0,30.11,SSE,165,1.0,5.0,24,0.00,,,0.00,,2013-02-21 23:01:00,
2013-02-21 15:11:00,52.0,16.0,30.11,SSE,165,1.0,5.0,24,0.00,,,0.00,,2013-02-21 23:11:00,
2013-02-21 15:21:00,52.0,15.0,30.11,East,100,3.0,8.0,23,0.00,,,0.00,,2013-02-21 23:21:00,
2013-02-21 15:31:00,52.0,15.0,30.10,SSE,155,3.0,7.0,23,0.00,,,0.00,,2013-02-21 23:31:00,
2013-02-21 15:41:00,52.0,15.0,30.10,SSE,155,3.0,7.0,23,0.00,,,0.00,,2013-02-21 23:41:00,
2013-02-21 15:52:00,52.0,15.0,30.11,SSE,161,0.0,6.0,23,0.00,,,0.00,,2013-02-21 23:52:00,
2013-02-21 16:01:00,52.0,16.0,30.11,NE,55,4.0,9.0,24,0.00,,,0.00,,2013-02-22 00:01:00,
2013-02-21 16:11:00,52.0,16.0,30.11,NE,55,4.0,9.0,24,0.00,,,0.00,,2013-02-22 00:11:00,
2013-02-21 16:21:00,51.0,15.0,30.11,ENE,76,4.0,9.0,23,0.00,,,0.00,,2013-02-22 00:21:00,
2013-02-21 16:31:00,51.0,15.0,30.11,ESE,111,2.0,6.0,23,0.00,,,0.00,,2013-02-22 00:31:00,
2013-02-21 16:41:00,51.0,15.0,30.11,ESE,111,2.0,6.0,23,0.00,,,0.00,,2013-02-22 00:41:00,
2013-02-21 16:51:00,51.0,15.0,30.11,ESE,107,1.0,5.0,23,0.00,,,0.00,,2013-02-22 00:51:00,
2013-02-21 17:01:00,51.0,15.0,30.11,East,87,1.0,5.0,23,0.00,,,0.00,,2013-02-22 01:01:00,
2013-02-21 17:11:00,51.0,15.0,30.11,East,87,1.0,5.0,23,0.00,,,0.00,,2013-02-22 01:11:00,
2013-02-21 17:21:00,51.0,14.0,30.11,East,85,0.0,6.0,22,0.00,,,0.00,,2013-02-22 01:21:00,
2013-02-21 17:32:00,51.0,15.0,30.12,East,86,0.0,5.0,23,0.00,,,0.00,,2013-02-22 01:32:00,
2013-02-21 17:42:00,51.0,15.0,30.12,East,86,0.0,5.0,23,0.00,,,0.00,,2013-02-22 01:42:00,
2013-02-21 17:51:00,50.0,14.0,30.12,East,86,0.0,2.0,23,0.00,,,0.00,,2013-02-22 01:51:00,
2013-02-21 18:01:00,49.0,14.0,30.12,East,86,0.0,2.0,24,0.00,,,0.00,,2013-02-22 02:01:00,
2013-02-21 18:11:00,49.0,14.0,30.12,East,86,0.0,2.0,24,0.00,,,0.00,,2013-02-22 02:11:00,
2013-02-21 18:21:00,49.0,15.0,30.13,East,86,0.0,2.0,25,0.00,,,0.00,,2013-02-22 02:21:00,
2013-02-21 18:31:00,48.0,15.0,30.14,East,86,0.0,0.0,26,0.00,,,0.00,,2013-02-22 02:31:00,
2013-02-21 18:42:00,48.0,15.0,30.14,East,86,0.0,0.0,26,0.00,,,0.00,,2013-02-22 02:42:00,
2013-02-21 18:52:00,48.0,15.0,30.14,East,86,0.0,1.0,26,0.00,,,0.00,,2013-02-22 02:52:00,
2013-02-21 19:01:00,48.0,16.0,30.15,East,86,0.0,3.0,27,0.00,,,0.00,,2013-02-22 03:01:00,
2013-02-21 19:11:00,48.0,16.0,30.15,East,86,0.0,3.0,27,0.00,,,0.00,,2013-02-22 03:11:00,
2013-02-21 19:21:00,47.0,16.0,30.15,East,86,0.0,2.0,28,0.00,,,0.00,,2013-02-22 03:21:00,
2013-02-21 19:31:00,47.0,18.0,30.16,East,94,0.0,5.0,31,0.00,,,0.00,,2013-02-22 03:31:00,
2013-02-21 19:41:00,47.0,18.0,30.16,East,94,0.0,5.0,31,0.00,,,0.00,,2013-02-22 03:41:00,
2013-02-21 19:51:00,46.0,18.0,30.16,ESE,109,2.0,6.0,32,0.00,,,0.00,,2013-02-22 03:51:00,
2013-02-21 20:01:00,45.0,18.0,30.17,SE,141,2.0,5.0,34,0.00,,,0.00,,2013-02-22 04:01:00,
2013-02-21 20:11:00,45.0,18.0,30.17,SE,141,2.0,5.0,34,0.00,,,0.00,,2013-02-22 04:11:00,
2013-02-21 20:21:00,44.0,18.0,30.18,SE,141,0.0,0.0,35,0.00,,,0.00,,2013-02-22 04:21:00,
2013-02-21 20:32:00,43.0,17.0,30.18,SE,141,0.0,0.0,35,0.00,,,0.00,,2013-02-22 04:32:00,
2013-02-21 20:41:00,43.0,17.0,30.18,SE,141,0.0,0.0,35,0.00,,,0.00,,2013-02-22 04:41:00,
2013-02-21 20:51:00,42.0,16.0,30.18,SE,141,0.0,3.0,35,0.00,,,0.00,,2013-02-22 04:51:00,
2013-02-21 21:01:00,41.0,16.0,30.19,SE,141,0.0,3.0,36,0.00,,,0.00,,2013-02-22 05:01:00,
2013-02-21 21:11:00,41.0,16.0,30.19,SE,141,0.0,3.0,36,0.00,,,0.00,,2013-02-22 05:11:00,
2013-02-21 21:22:00,40.0,15.0,30.19,SE,142,0.0,3.0,36,0.00,,,0.00,,2013-02-22 05:22:00,
2013-02-21 21:32:00,40.0,16.0,30.19,SE,142,1.0,4.0,37,0.00,,,0.00,,2013-02-22 05:32:00,
2013-02-21 21:41:00,40.0,16.0,30.19,SE,142,1.0,4.0,37,0.00,,,0.00,,2013-02-22 05:41:00,
2013-02-21 21:52:00,39.0,16.0,30.19,SE,141,2.0,3.0,38,0.00,,,0.00,,2013-02-22 05:52:00,
2013-02-21 22:01:00,39.0,16.0,30.20,SE,142,0.0,3.0,38,0.00,,,0.00,,2013-02-22 06:01:00,
2013-02-21 22:11:00,39.0,16.0,30.20,SE,142,0.0,3.0,38,0.00,,,0.00,,2013-02-22 06:11:00,
2013-02-21 22:21:00,38.0,15.0,30.20,ESE,122,0.0,5.0,39,0.00,,,0.00,,2013-02-22 06:21:00,
2013-02-21 22:31:00,38.0,15.0,30.20,SE,124,0.0,2.0,39,0.00,,,0.00,,2013-02-22 06:31:00,
2013-02-21 22:41:00,38.0,15.0,30.20,SE,124,0.0,2.0,39,0.00,,,0.00,,2013-02-22 06:41:00,
2013-02-21 22:51:00,38.0,15.0,30.20,SE,129,0.0,3.0,39,0.00,,,0.00,,2013-02-22 06:51:00,
2013-02-21 23:01:00,38.0,16.0,30.21,SE,129,0.0,0.0,40,0.00,,,0.00,,2013-02-22 07:01:00,
2013-02-21 23:11:00,38.0,16.0,30.21,SE,129,0.0,0.0,40,0.00,,,0.00,,2013-02-22 07:11:00,
2013-02-21 23:21:00,38.0,16.0,30.21,SE,129,0.0,0.0,40,0.00,,,0.00,,2013-02-22 07:21:00,
2013-02-21 23:31:00,37.0,16.0,30.21,SE,129,0.0,3.0,41,0.00,,,0.00,,2013-02-22 07:31:00,
2013-02-21 23:42:00,37.0,16.0,30.21,SE,129,0.0,3.0,41,0.00,,,0.00,,2013-02-22 07:42:00,
2013-02-21 23:51:00,36.0,16.0,30.22,SE,129,0.0,0.0,43,0.00,,,0.00,,2013-02-22 07:51:00,